sensor_id;sensor_type;location;lat;lon;timestamp;P1;durP1;ratioP1;P2;durP2;ratioP2
18316;SDS011;9284;52.298;21.164;2023-07-20T00:01:52;6.93;;;2.72;;
18316;SDS011;9284;52.298;21.164;2023-07-20T00:04:21;3.47;;;2.70;;
18316;SDS011;9284;52.298;21.164;2023-07-20T00:06:50;5.05;;;2.60;;
18316;SDS011;9284;52.298;21.164;2023-07-20T00:09:18;4.47;;;2.60;;
18316;SDS011;9284;52.298;21.164;2023-07-20T00:11:48;3.35;;;2.63;;
18316;SDS011;9284;52.298;21.164;2023-07-20T00:14:18;4.75;;;2.72;;
18316;SDS011;9284;52.298;21.164;2023-07-20T00:16:49;5.32;;;2.60;;
18316;SDS011;9284;52.298;21.164;2023-07-20T00:19:22;6.85;;;3.13;;
18316;SDS011;9284;52.298;21.164;2023-07-20T00:21:51;4.35;;;2.97;;
18316;SDS011;9284;52.298;21.164;2023-07-20T00:24:19;5.07;;;2.80;;
18316;SDS011;9284;52.298;21.164;2023-07-20T00:26:48;4.85;;;2.80;;
18316;SDS011;9284;52.298;21.164;2023-07-20T00:29:17;6.20;;;2.88;;
18316;SDS011;9284;52.298;21.164;2023-07-20T00:31:46;4.95;;;2.78;;
18316;SDS011;9284;52.298;21.164;2023-07-20T00:34:17;5.90;;;3.17;;
18316;SDS011;9284;52.298;21.164;2023-07-20T00:36:46;3.33;;;2.72;;
18316;SDS011;9284;52.298;21.164;2023-07-20T00:39:15;8.35;;;3.15;;
18316;SDS011;9284;52.298;21.164;2023-07-20T00:41:44;4.47;;;3.05;;
18316;SDS011;9284;52.298;21.164;2023-07-20T00:44:12;8.20;;;3.40;;
18316;SDS011;9284;52.298;21.164;2023-07-20T00:46:40;4.32;;;2.80;;
18316;SDS011;9284;52.298;21.164;2023-07-20T00:49:12;4.57;;;2.95;;
18316;SDS011;9284;52.298;21.164;2023-07-20T00:51:40;5.60;;;3.40;;
18316;SDS011;9284;52.298;21.164;2023-07-20T00:54:09;5.38;;;3.17;;
18316;SDS011;9284;52.298;21.164;2023-07-20T00:56:37;4.07;;;2.90;;
18316;SDS011;9284;52.298;21.164;2023-07-20T00:59:06;4.78;;;3.05;;
18316;SDS011;9284;52.298;21.164;2023-07-20T01:01:34;5.70;;;3.10;;
18316;SDS011;9284;52.298;21.164;2023-07-20T01:04:03;3.88;;;2.42;;
18316;SDS011;9284;52.298;21.164;2023-07-20T01:06:36;7.60;;;3.53;;
18316;SDS011;9284;52.298;21.164;2023-07-20T01:09:13;5.30;;;2.90;;
18316;SDS011;9284;52.298;21.164;2023-07-20T01:11:48;4.97;;;3.10;;
18316;SDS011;9284;52.298;21.164;2023-07-20T01:14:21;6.93;;;3.25;;
18316;SDS011;9284;52.298;21.164;2023-07-20T01:16:52;7.07;;;3.13;;
18316;SDS011;9284;52.298;21.164;2023-07-20T01:19:20;6.13;;;3.00;;
18316;SDS011;9284;52.298;21.164;2023-07-20T01:21:52;7.25;;;3.10;;
18316;SDS011;9284;52.298;21.164;2023-07-20T01:24:45;5.07;;;3.00;;
18316;SDS011;9284;52.298;21.164;2023-07-20T01:30:46;6.03;;;3.13;;
18316;SDS011;9284;52.298;21.164;2023-07-20T01:33:24;6.85;;;2.97;;
18316;SDS011;9284;52.298;21.164;2023-07-20T01:35:54;4.60;;;3.10;;
18316;SDS011;9284;52.298;21.164;2023-07-20T01:38:25;6.78;;;3.50;;
18316;SDS011;9284;52.298;21.164;2023-07-20T01:40:54;7.30;;;2.90;;
18316;SDS011;9284;52.298;21.164;2023-07-20T01:43:23;6.47;;;3.20;;
18316;SDS011;9284;52.298;21.164;2023-07-20T01:45:52;7.65;;;3.33;;
18316;SDS011;9284;52.298;21.164;2023-07-20T01:48:20;6.55;;;3.22;;
18316;SDS011;9284;52.298;21.164;2023-07-20T01:50:50;4.22;;;3.40;;
18316;SDS011;9284;52.298;21.164;2023-07-20T01:53:19;4.40;;;3.10;;
18316;SDS011;9284;52.298;21.164;2023-07-20T01:55:47;4.38;;;3.08;;
18316;SDS011;9284;52.298;21.164;2023-07-20T01:58:16;4.88;;;2.85;;
18316;SDS011;9284;52.298;21.164;2023-07-20T02:00:44;6.75;;;3.50;;
18316;SDS011;9284;52.298;21.164;2023-07-20T02:03:12;5.72;;;3.40;;
18316;SDS011;9284;52.298;21.164;2023-07-20T02:05:41;4.53;;;3.17;;
18316;SDS011;9284;52.298;21.164;2023-07-20T02:08:11;3.97;;;3.03;;
18316;SDS011;9284;52.298;21.164;2023-07-20T02:10:40;6.10;;;3.15;;
18316;SDS011;9284;52.298;21.164;2023-07-20T02:13:08;5.28;;;3.55;;
18316;SDS011;9284;52.298;21.164;2023-07-20T02:15:37;4.00;;;3.25;;
18316;SDS011;9284;52.298;21.164;2023-07-20T02:18:05;7.13;;;3.55;;
18316;SDS011;9284;52.298;21.164;2023-07-20T02:20:34;5.90;;;3.10;;
18316;SDS011;9284;52.298;21.164;2023-07-20T02:23:02;7.20;;;3.47;;
18316;SDS011;9284;52.298;21.164;2023-07-20T02:25:32;6.05;;;3.17;;
18316;SDS011;9284;52.298;21.164;2023-07-20T02:28:00;4.80;;;3.55;;
18316;SDS011;9284;52.298;21.164;2023-07-20T02:30:29;5.60;;;3.17;;
18316;SDS011;9284;52.298;21.164;2023-07-20T02:32:57;5.00;;;3.42;;
18316;SDS011;9284;52.298;21.164;2023-07-20T02:35:26;3.72;;;3.03;;
18316;SDS011;9284;52.298;21.164;2023-07-20T02:37:54;4.93;;;3.10;;
18316;SDS011;9284;52.298;21.164;2023-07-20T02:40:23;7.18;;;3.60;;
18316;SDS011;9284;52.298;21.164;2023-07-20T02:42:52;7.18;;;2.90;;
18316;SDS011;9284;52.298;21.164;2023-07-20T02:45:21;5.47;;;3.35;;
18316;SDS011;9284;52.298;21.164;2023-07-20T02:47:49;4.97;;;3.40;;
18316;SDS011;9284;52.298;21.164;2023-07-20T02:50:18;4.40;;;3.10;;
18316;SDS011;9284;52.298;21.164;2023-07-20T02:52:46;5.63;;;3.38;;
18316;SDS011;9284;52.298;21.164;2023-07-20T02:55:14;7.90;;;3.67;;
18316;SDS011;9284;52.298;21.164;2023-07-20T02:57:43;6.97;;;3.42;;
18316;SDS011;9284;52.298;21.164;2023-07-20T03:00:14;5.95;;;3.40;;
18316;SDS011;9284;52.298;21.164;2023-07-20T03:02:43;5.95;;;3.65;;
18316;SDS011;9284;52.298;21.164;2023-07-20T03:05:14;5.07;;;3.33;;
18316;SDS011;9284;52.298;21.164;2023-07-20T03:07:43;7.93;;;3.33;;
18316;SDS011;9284;52.298;21.164;2023-07-20T03:10:12;4.00;;;2.78;;
18316;SDS011;9284;52.298;21.164;2023-07-20T03:12:40;4.80;;;3.10;;
18316;SDS011;9284;52.298;21.164;2023-07-20T03:15:09;7.57;;;3.15;;
18316;SDS011;9284;52.298;21.164;2023-07-20T03:17:40;13.90;;;4.10;;
18316;SDS011;9284;52.298;21.164;2023-07-20T03:20:09;9.15;;;3.83;;
18316;SDS011;9284;52.298;21.164;2023-07-20T03:22:40;13.48;;;4.32;;
18316;SDS011;9284;52.298;21.164;2023-07-20T03:25:08;9.52;;;3.40;;
18316;SDS011;9284;52.298;21.164;2023-07-20T03:27:37;13.05;;;3.88;;
18316;SDS011;9284;52.298;21.164;2023-07-20T03:30:06;9.63;;;3.67;;
18316;SDS011;9284;52.298;21.164;2023-07-20T03:32:37;7.43;;;3.97;;
18316;SDS011;9284;52.298;21.164;2023-07-20T03:35:07;7.32;;;3.65;;
18316;SDS011;9284;52.298;21.164;2023-07-20T03:37:36;8.65;;;3.47;;
18316;SDS011;9284;52.298;21.164;2023-07-20T03:40:05;4.63;;;2.92;;
18316;SDS011;9284;52.298;21.164;2023-07-20T03:42:34;4.40;;;3.40;;
18316;SDS011;9284;52.298;21.164;2023-07-20T03:45:03;6.15;;;3.90;;
18316;SDS011;9284;52.298;21.164;2023-07-20T03:47:32;7.10;;;4.10;;
18316;SDS011;9284;52.298;21.164;2023-07-20T03:50:01;7.28;;;4.65;;
18316;SDS011;9284;52.298;21.164;2023-07-20T03:52:31;7.15;;;4.60;;
18316;SDS011;9284;52.298;21.164;2023-07-20T03:54:59;10.10;;;4.88;;
18316;SDS011;9284;52.298;21.164;2023-07-20T03:57:28;6.45;;;4.72;;
18316;SDS011;9284;52.298;21.164;2023-07-20T03:59:59;7.72;;;5.10;;
18316;SDS011;9284;52.298;21.164;2023-07-20T04:02:38;8.63;;;5.43;;
18316;SDS011;9284;52.298;21.164;2023-07-20T04:05:07;9.05;;;5.63;;
18316;SDS011;9284;52.298;21.164;2023-07-20T04:07:36;6.47;;;5.00;;
18316;SDS011;9284;52.298;21.164;2023-07-20T04:10:05;10.80;;;5.03;;
18316;SDS011;9284;52.298;21.164;2023-07-20T04:12:34;9.23;;;5.38;;
18316;SDS011;9284;52.298;21.164;2023-07-20T04:15:03;8.98;;;5.78;;
18316;SDS011;9284;52.298;21.164;2023-07-20T04:17:33;9.80;;;6.25;;
18316;SDS011;9284;52.298;21.164;2023-07-20T04:20:02;9.27;;;6.28;;
18316;SDS011;9284;52.298;21.164;2023-07-20T04:22:32;12.38;;;6.53;;
18316;SDS011;9284;52.298;21.164;2023-07-20T04:25:02;9.48;;;6.38;;
18316;SDS011;9284;52.298;21.164;2023-07-20T04:27:31;7.90;;;6.13;;
18316;SDS011;9284;52.298;21.164;2023-07-20T04:30:00;9.90;;;6.40;;
18316;SDS011;9284;52.298;21.164;2023-07-20T04:32:29;10.40;;;6.80;;
18316;SDS011;9284;52.298;21.164;2023-07-20T04:35:05;11.40;;;7.03;;
18316;SDS011;9284;52.298;21.164;2023-07-20T04:37:38;9.52;;;7.00;;
18316;SDS011;9284;52.298;21.164;2023-07-20T04:40:17;13.30;;;7.45;;
18316;SDS011;9284;52.298;21.164;2023-07-20T04:42:46;11.35;;;7.90;;
18316;SDS011;9284;52.298;21.164;2023-07-20T04:45:14;12.93;;;8.15;;
18316;SDS011;9284;52.298;21.164;2023-07-20T04:47:45;11.15;;;7.45;;
18316;SDS011;9284;52.298;21.164;2023-07-20T04:50:14;10.65;;;7.32;;
18316;SDS011;9284;52.298;21.164;2023-07-20T04:52:43;10.00;;;7.38;;
18316;SDS011;9284;52.298;21.164;2023-07-20T04:55:18;12.45;;;7.63;;
18316;SDS011;9284;52.298;21.164;2023-07-20T04:57:46;15.82;;;8.15;;
18316;SDS011;9284;52.298;21.164;2023-07-20T05:00:15;14.75;;;8.60;;
18316;SDS011;9284;52.298;21.164;2023-07-20T05:02:44;13.60;;;8.65;;
18316;SDS011;9284;52.298;21.164;2023-07-20T05:05:15;12.45;;;9.73;;
18316;SDS011;9284;52.298;21.164;2023-07-20T05:07:43;16.40;;;9.23;;
18316;SDS011;9284;52.298;21.164;2023-07-20T05:10:12;16.50;;;10.05;;
18316;SDS011;9284;52.298;21.164;2023-07-20T05:12:42;11.48;;;9.35;;
18316;SDS011;9284;52.298;21.164;2023-07-20T05:15:10;15.02;;;9.73;;
18316;SDS011;9284;52.298;21.164;2023-07-20T05:17:40;14.68;;;9.48;;
18316;SDS011;9284;52.298;21.164;2023-07-20T05:20:09;16.95;;;9.43;;
18316;SDS011;9284;52.298;21.164;2023-07-20T05:22:39;13.98;;;9.32;;
18316;SDS011;9284;52.298;21.164;2023-07-20T05:25:08;10.48;;;8.57;;
18316;SDS011;9284;52.298;21.164;2023-07-20T05:27:37;12.65;;;8.10;;
18316;SDS011;9284;52.298;21.164;2023-07-20T05:30:08;16.48;;;8.65;;
18316;SDS011;9284;52.298;21.164;2023-07-20T05:32:37;13.82;;;8.10;;
18316;SDS011;9284;52.298;21.164;2023-07-20T05:35:06;9.07;;;7.13;;
18316;SDS011;9284;52.298;21.164;2023-07-20T05:37:38;10.02;;;7.40;;
18316;SDS011;9284;52.298;21.164;2023-07-20T05:40:06;9.95;;;7.03;;
18316;SDS011;9284;52.298;21.164;2023-07-20T05:42:37;12.20;;;7.40;;
18316;SDS011;9284;52.298;21.164;2023-07-20T05:45:05;11.07;;;7.35;;
18316;SDS011;9284;52.298;21.164;2023-07-20T05:47:36;14.40;;;7.95;;
18316;SDS011;9284;52.298;21.164;2023-07-20T05:50:05;10.07;;;7.47;;
18316;SDS011;9284;52.298;21.164;2023-07-20T05:52:34;10.90;;;7.13;;
18316;SDS011;9284;52.298;21.164;2023-07-20T05:55:02;12.35;;;7.15;;
18316;SDS011;9284;52.298;21.164;2023-07-20T05:57:31;10.88;;;6.75;;
18316;SDS011;9284;52.298;21.164;2023-07-20T05:59:59;15.30;;;7.28;;
18316;SDS011;9284;52.298;21.164;2023-07-20T06:02:38;9.43;;;6.60;;
18316;SDS011;9284;52.298;21.164;2023-07-20T06:05:08;10.07;;;7.45;;
18316;SDS011;9284;52.298;21.164;2023-07-20T06:07:40;16.23;;;8.45;;
18316;SDS011;9284;52.298;21.164;2023-07-20T06:10:09;11.32;;;7.28;;
18316;SDS011;9284;52.298;21.164;2023-07-20T06:12:37;10.27;;;7.07;;
18316;SDS011;9284;52.298;21.164;2023-07-20T06:15:09;11.50;;;7.45;;
18316;SDS011;9284;52.298;21.164;2023-07-20T06:17:55;10.27;;;7.18;;
18316;SDS011;9284;52.298;21.164;2023-07-20T06:20:25;9.27;;;7.32;;
18316;SDS011;9284;52.298;21.164;2023-07-20T06:22:53;10.80;;;6.95;;
18316;SDS011;9284;52.298;21.164;2023-07-20T06:25:21;11.70;;;6.72;;
18316;SDS011;9284;52.298;21.164;2023-07-20T06:27:50;12.38;;;7.20;;
18316;SDS011;9284;52.298;21.164;2023-07-20T06:30:19;10.80;;;6.90;;
18316;SDS011;9284;52.298;21.164;2023-07-20T06:32:47;11.40;;;6.38;;
18316;SDS011;9284;52.298;21.164;2023-07-20T06:35:18;9.32;;;6.15;;
18316;SDS011;9284;52.298;21.164;2023-07-20T06:37:47;10.65;;;6.22;;
18316;SDS011;9284;52.298;21.164;2023-07-20T06:40:15;7.60;;;5.85;;
18316;SDS011;9284;52.298;21.164;2023-07-20T06:42:47;10.73;;;5.45;;
18316;SDS011;9284;52.298;21.164;2023-07-20T06:45:18;11.63;;;6.00;;
18316;SDS011;9284;52.298;21.164;2023-07-20T06:47:46;7.55;;;5.70;;
18316;SDS011;9284;52.298;21.164;2023-07-20T06:50:15;7.70;;;5.45;;
18316;SDS011;9284;52.298;21.164;2023-07-20T06:52:45;7.82;;;5.28;;
18316;SDS011;9284;52.298;21.164;2023-07-20T06:55:14;8.35;;;5.55;;
18316;SDS011;9284;52.298;21.164;2023-07-20T06:57:49;9.20;;;5.65;;
18316;SDS011;9284;52.298;21.164;2023-07-20T07:00:24;7.72;;;5.45;;
18316;SDS011;9284;52.298;21.164;2023-07-20T07:02:52;7.45;;;5.47;;
18316;SDS011;9284;52.298;21.164;2023-07-20T07:05:21;12.02;;;5.38;;
18316;SDS011;9284;52.298;21.164;2023-07-20T07:07:51;9.85;;;4.97;;
18316;SDS011;9284;52.298;21.164;2023-07-20T07:10:19;8.52;;;5.15;;
18316;SDS011;9284;52.298;21.164;2023-07-20T07:12:48;9.90;;;5.00;;
18316;SDS011;9284;52.298;21.164;2023-07-20T07:15:16;8.15;;;5.05;;
18316;SDS011;9284;52.298;21.164;2023-07-20T07:17:44;7.07;;;4.95;;
18316;SDS011;9284;52.298;21.164;2023-07-20T07:20:13;7.75;;;4.78;;
18316;SDS011;9284;52.298;21.164;2023-07-20T07:22:44;8.60;;;5.18;;
18316;SDS011;9284;52.298;21.164;2023-07-20T07:25:15;9.32;;;5.30;;
18316;SDS011;9284;52.298;21.164;2023-07-20T07:27:49;8.65;;;4.97;;
18316;SDS011;9284;52.298;21.164;2023-07-20T07:30:18;7.25;;;5.35;;
18316;SDS011;9284;52.298;21.164;2023-07-20T07:32:46;7.75;;;5.32;;
18316;SDS011;9284;52.298;21.164;2023-07-20T07:35:16;7.75;;;5.35;;
18316;SDS011;9284;52.298;21.164;2023-07-20T07:37:44;5.63;;;4.93;;
18316;SDS011;9284;52.298;21.164;2023-07-20T07:40:35;5.88;;;5.00;;
18316;SDS011;9284;52.298;21.164;2023-07-20T07:43:06;9.35;;;5.25;;
18316;SDS011;9284;52.298;21.164;2023-07-20T07:45:35;8.52;;;5.43;;
18316;SDS011;9284;52.298;21.164;2023-07-20T07:48:04;8.02;;;5.18;;
18316;SDS011;9284;52.298;21.164;2023-07-20T07:50:33;8.15;;;5.07;;
18316;SDS011;9284;52.298;21.164;2023-07-20T07:53:06;9.82;;;5.20;;
18316;SDS011;9284;52.298;21.164;2023-07-20T07:55:37;8.93;;;5.90;;
18316;SDS011;9284;52.298;21.164;2023-07-20T07:58:06;9.80;;;6.25;;
18316;SDS011;9284;52.298;21.164;2023-07-20T08:00:34;10.52;;;6.55;;
18316;SDS011;9284;52.298;21.164;2023-07-20T08:03:03;9.40;;;5.45;;
18316;SDS011;9284;52.298;21.164;2023-07-20T08:05:31;10.15;;;6.25;;
18316;SDS011;9284;52.298;21.164;2023-07-20T08:08:01;10.40;;;6.85;;
18316;SDS011;9284;52.298;21.164;2023-07-20T08:10:30;8.98;;;6.38;;
18316;SDS011;9284;52.298;21.164;2023-07-20T08:12:59;11.40;;;6.88;;
18316;SDS011;9284;52.298;21.164;2023-07-20T08:15:28;14.30;;;7.93;;
18316;SDS011;9284;52.298;21.164;2023-07-20T08:17:57;10.93;;;8.57;;
18316;SDS011;9284;52.298;21.164;2023-07-20T08:20:25;12.20;;;7.97;;
18316;SDS011;9284;52.298;21.164;2023-07-20T08:22:54;11.93;;;7.47;;
18316;SDS011;9284;52.298;21.164;2023-07-20T08:25:23;11.93;;;7.70;;
18316;SDS011;9284;52.298;21.164;2023-07-20T08:27:51;12.73;;;8.23;;
18316;SDS011;9284;52.298;21.164;2023-07-20T08:30:22;10.75;;;7.82;;
18316;SDS011;9284;52.298;21.164;2023-07-20T08:32:51;11.80;;;7.88;;
18316;SDS011;9284;52.298;21.164;2023-07-20T08:35:19;15.23;;;8.45;;
18316;SDS011;9284;52.298;21.164;2023-07-20T08:37:48;13.35;;;7.65;;
18316;SDS011;9284;52.298;21.164;2023-07-20T08:40:17;11.15;;;8.18;;
18316;SDS011;9284;52.298;21.164;2023-07-20T08:42:45;14.20;;;7.72;;
18316;SDS011;9284;52.298;21.164;2023-07-20T08:45:14;12.70;;;7.72;;
18316;SDS011;9284;52.298;21.164;2023-07-20T08:47:46;9.40;;;7.50;;
18316;SDS011;9284;52.298;21.164;2023-07-20T08:50:16;10.60;;;7.22;;
18316;SDS011;9284;52.298;21.164;2023-07-20T08:52:45;11.38;;;7.13;;
18316;SDS011;9284;52.298;21.164;2023-07-20T08:55:14;9.45;;;6.82;;
18316;SDS011;9284;52.298;21.164;2023-07-20T08:57:42;6.90;;;5.75;;
18316;SDS011;9284;52.298;21.164;2023-07-20T09:00:13;8.73;;;5.30;;
18316;SDS011;9284;52.298;21.164;2023-07-20T09:02:43;7.18;;;5.50;;
18316;SDS011;9284;52.298;21.164;2023-07-20T09:05:16;6.90;;;4.40;;
18316;SDS011;9284;52.298;21.164;2023-07-20T09:07:46;8.68;;;5.13;;
18316;SDS011;9284;52.298;21.164;2023-07-20T09:10:14;6.85;;;4.97;;
18316;SDS011;9284;52.298;21.164;2023-07-20T09:12:43;6.35;;;5.03;;
18316;SDS011;9284;52.298;21.164;2023-07-20T09:15:11;5.47;;;4.95;;
18316;SDS011;9284;52.298;21.164;2023-07-20T09:17:41;6.80;;;5.38;;
18316;SDS011;9284;52.298;21.164;2023-07-20T09:20:15;13.98;;;5.88;;
18316;SDS011;9284;52.298;21.164;2023-07-20T09:22:48;12.55;;;9.13;;
18316;SDS011;9284;52.298;21.164;2023-07-20T09:25:19;11.35;;;8.57;;
18316;SDS011;9284;52.298;21.164;2023-07-20T09:27:50;8.50;;;5.78;;
18316;SDS011;9284;52.298;21.164;2023-07-20T09:30:20;10.45;;;6.13;;
18316;SDS011;9284;52.298;21.164;2023-07-20T09:32:57;9.38;;;6.88;;
18316;SDS011;9284;52.298;21.164;2023-07-20T09:35:26;10.48;;;6.97;;
18316;SDS011;9284;52.298;21.164;2023-07-20T09:38:08;8.70;;;6.95;;
18316;SDS011;9284;52.298;21.164;2023-07-20T09:40:40;11.80;;;7.55;;
18316;SDS011;9284;52.298;21.164;2023-07-20T09:43:11;10.80;;;7.78;;
18316;SDS011;9284;52.298;21.164;2023-07-20T09:45:43;11.43;;;7.85;;
18316;SDS011;9284;52.298;21.164;2023-07-20T09:48:16;11.57;;;7.75;;
18316;SDS011;9284;52.298;21.164;2023-07-20T09:50:51;11.60;;;7.35;;
18316;SDS011;9284;52.298;21.164;2023-07-20T09:53:21;8.63;;;6.40;;
18316;SDS011;9284;52.298;21.164;2023-07-20T09:55:52;8.70;;;5.63;;
18316;SDS011;9284;52.298;21.164;2023-07-20T09:58:21;5.57;;;4.40;;
18316;SDS011;9284;52.298;21.164;2023-07-20T10:00:50;7.78;;;4.78;;
18316;SDS011;9284;52.298;21.164;2023-07-20T10:03:22;6.30;;;4.22;;
18316;SDS011;9284;52.298;21.164;2023-07-20T10:06:02;8.20;;;4.18;;
18316;SDS011;9284;52.298;21.164;2023-07-20T10:08:34;5.68;;;4.28;;
18316;SDS011;9284;52.298;21.164;2023-07-20T10:11:09;8.68;;;5.05;;
18316;SDS011;9284;52.298;21.164;2023-07-20T10:13:39;5.20;;;4.03;;
18316;SDS011;9284;52.298;21.164;2023-07-20T10:16:11;7.20;;;4.90;;
18316;SDS011;9284;52.298;21.164;2023-07-20T10:18:46;6.43;;;4.32;;
18316;SDS011;9284;52.298;21.164;2023-07-20T10:21:18;6.85;;;4.53;;
18316;SDS011;9284;52.298;21.164;2023-07-20T10:23:52;5.82;;;4.15;;
18316;SDS011;9284;52.298;21.164;2023-07-20T10:26:24;6.07;;;4.20;;
18316;SDS011;9284;52.298;21.164;2023-07-20T10:28:53;7.22;;;3.28;;
18316;SDS011;9284;52.298;21.164;2023-07-20T10:31:23;4.20;;;3.10;;
18316;SDS011;9284;52.298;21.164;2023-07-20T10:33:54;4.72;;;3.38;;
18316;SDS011;9284;52.298;21.164;2023-07-20T10:36:24;9.25;;;3.38;;
18316;SDS011;9284;52.298;21.164;2023-07-20T10:38:57;5.05;;;3.00;;
18316;SDS011;9284;52.298;21.164;2023-07-20T10:41:27;5.22;;;3.45;;
18316;SDS011;9284;52.298;21.164;2023-07-20T10:44:00;5.55;;;3.45;;
18316;SDS011;9284;52.298;21.164;2023-07-20T10:46:34;6.47;;;3.95;;
18316;SDS011;9284;52.298;21.164;2023-07-20T10:49:12;5.00;;;4.35;;
18316;SDS011;9284;52.298;21.164;2023-07-20T10:51:42;6.47;;;4.50;;
18316;SDS011;9284;52.298;21.164;2023-07-20T10:57:22;7.35;;;4.70;;
18316;SDS011;9284;52.298;21.164;2023-07-20T10:59:52;6.80;;;4.60;;
18316;SDS011;9284;52.298;21.164;2023-07-20T11:02:41;8.77;;;4.32;;
18316;SDS011;9284;52.298;21.164;2023-07-20T11:08:06;7.80;;;3.70;;
18316;SDS011;9284;52.298;21.164;2023-07-20T11:10:38;6.38;;;3.83;;
18316;SDS011;9284;52.298;21.164;2023-07-20T11:13:19;7.35;;;3.80;;
18316;SDS011;9284;52.298;21.164;2023-07-20T11:16:02;5.90;;;4.13;;
18316;SDS011;9284;52.298;21.164;2023-07-20T11:18:35;4.55;;;3.30;;
18316;SDS011;9284;52.298;21.164;2023-07-20T11:21:09;6.10;;;3.00;;
18316;SDS011;9284;52.298;21.164;2023-07-20T11:23:39;3.10;;;2.53;;
18316;SDS011;9284;52.298;21.164;2023-07-20T11:26:08;3.80;;;2.33;;
18316;SDS011;9284;52.298;21.164;2023-07-20T11:28:37;3.60;;;2.30;;
18316;SDS011;9284;52.298;21.164;2023-07-20T11:31:06;2.55;;;2.13;;
18316;SDS011;9284;52.298;21.164;2023-07-20T11:33:34;3.55;;;2.42;;
18316;SDS011;9284;52.298;21.164;2023-07-20T11:36:03;2.92;;;1.95;;
18316;SDS011;9284;52.298;21.164;2023-07-20T11:38:54;2.75;;;2.20;;
18316;SDS011;9284;52.298;21.164;2023-07-20T11:41:22;3.03;;;1.80;;
18316;SDS011;9284;52.298;21.164;2023-07-20T11:43:52;2.47;;;2.10;;
18316;SDS011;9284;52.298;21.164;2023-07-20T11:46:21;3.53;;;2.20;;
18316;SDS011;9284;52.298;21.164;2023-07-20T11:48:55;2.35;;;1.88;;
18316;SDS011;9284;52.298;21.164;2023-07-20T11:51:26;3.55;;;2.47;;
18316;SDS011;9284;52.298;21.164;2023-07-20T11:53:57;2.33;;;2.10;;
18316;SDS011;9284;52.298;21.164;2023-07-20T11:56:26;2.45;;;1.85;;
18316;SDS011;9284;52.298;21.164;2023-07-20T11:58:55;3.47;;;1.70;;
18316;SDS011;9284;52.298;21.164;2023-07-20T12:01:26;3.13;;;1.70;;
18316;SDS011;9284;52.298;21.164;2023-07-20T12:03:56;2.13;;;1.85;;
18316;SDS011;9284;52.298;21.164;2023-07-20T12:06:25;3.63;;;2.03;;
18316;SDS011;9284;52.298;21.164;2023-07-20T12:08:57;2.78;;;2.25;;
18316;SDS011;9284;52.298;21.164;2023-07-20T12:11:33;5.13;;;2.28;;
18316;SDS011;9284;52.298;21.164;2023-07-20T12:14:02;2.53;;;2.20;;
18316;SDS011;9284;52.298;21.164;2023-07-20T12:16:42;3.63;;;2.25;;
18316;SDS011;9284;52.298;21.164;2023-07-20T12:19:12;2.58;;;2.20;;
18316;SDS011;9284;52.298;21.164;2023-07-20T12:21:41;3.90;;;2.30;;
18316;SDS011;9284;52.298;21.164;2023-07-20T12:24:11;3.97;;;2.55;;
18316;SDS011;9284;52.298;21.164;2023-07-20T12:26:39;3.13;;;2.15;;
18316;SDS011;9284;52.298;21.164;2023-07-20T12:29:08;3.15;;;2.25;;
18316;SDS011;9284;52.298;21.164;2023-07-20T12:31:36;4.93;;;2.28;;
18316;SDS011;9284;52.298;21.164;2023-07-20T12:34:04;3.67;;;2.38;;
18316;SDS011;9284;52.298;21.164;2023-07-20T12:36:34;2.20;;;1.95;;
18316;SDS011;9284;52.298;21.164;2023-07-20T12:39:03;2.45;;;1.80;;
18316;SDS011;9284;52.298;21.164;2023-07-20T12:41:33;1.83;;;1.55;;
18316;SDS011;9284;52.298;21.164;2023-07-20T12:44:01;2.13;;;1.73;;
18316;SDS011;9284;52.298;21.164;2023-07-20T12:46:29;1.80;;;1.70;;
18316;SDS011;9284;52.298;21.164;2023-07-20T12:49:01;1.83;;;1.50;;
18316;SDS011;9284;52.298;21.164;2023-07-20T12:51:30;2.20;;;1.77;;
18316;SDS011;9284;52.298;21.164;2023-07-20T12:53:58;2.78;;;1.60;;
18316;SDS011;9284;52.298;21.164;2023-07-20T12:56:26;1.50;;;1.20;;
18316;SDS011;9284;52.298;21.164;2023-07-20T12:58:59;2.45;;;1.30;;
18316;SDS011;9284;52.298;21.164;2023-07-20T13:01:29;2.70;;;1.40;;
18316;SDS011;9284;52.298;21.164;2023-07-20T13:03:58;1.67;;;1.52;;
18316;SDS011;9284;52.298;21.164;2023-07-20T13:06:29;2.03;;;1.50;;
18316;SDS011;9284;52.298;21.164;2023-07-20T13:09:00;2.50;;;1.55;;
18316;SDS011;9284;52.298;21.164;2023-07-20T13:11:28;1.58;;;1.40;;
18316;SDS011;9284;52.298;21.164;2023-07-20T13:13:56;2.22;;;1.50;;
18316;SDS011;9284;52.298;21.164;2023-07-20T13:16:26;1.80;;;1.50;;
18316;SDS011;9284;52.298;21.164;2023-07-20T13:18:55;2.60;;;1.40;;
18316;SDS011;9284;52.298;21.164;2023-07-20T13:21:24;2.75;;;1.02;;
18316;SDS011;9284;52.298;21.164;2023-07-20T13:23:52;1.13;;;1.02;;
18316;SDS011;9284;52.298;21.164;2023-07-20T13:26:21;5.32;;;1.42;;
18316;SDS011;9284;52.298;21.164;2023-07-20T13:28:50;1.33;;;1.23;;
18316;SDS011;9284;52.298;21.164;2023-07-20T13:31:21;2.22;;;1.45;;
18316;SDS011;9284;52.298;21.164;2023-07-20T13:33:51;1.48;;;1.30;;
18316;SDS011;9284;52.298;21.164;2023-07-20T13:36:25;1.90;;;1.60;;
18316;SDS011;9284;52.298;21.164;2023-07-20T13:38:56;3.00;;;1.75;;
18316;SDS011;9284;52.298;21.164;2023-07-20T13:41:25;2.45;;;1.63;;
18316;SDS011;9284;52.298;21.164;2023-07-20T13:43:56;4.40;;;2.00;;
18316;SDS011;9284;52.298;21.164;2023-07-20T13:46:24;2.80;;;1.50;;
18316;SDS011;9284;52.298;21.164;2023-07-20T13:48:57;2.88;;;1.55;;
18316;SDS011;9284;52.298;21.164;2023-07-20T13:51:25;1.60;;;1.50;;
18316;SDS011;9284;52.298;21.164;2023-07-20T13:53:54;2.00;;;1.58;;
18316;SDS011;9284;52.298;21.164;2023-07-20T13:56:23;3.25;;;1.70;;
18316;SDS011;9284;52.298;21.164;2023-07-20T13:58:51;2.38;;;1.52;;
18316;SDS011;9284;52.298;21.164;2023-07-20T14:01:19;3.10;;;1.73;;
18316;SDS011;9284;52.298;21.164;2023-07-20T14:03:52;1.60;;;1.40;;
18316;SDS011;9284;52.298;21.164;2023-07-20T14:06:22;2.33;;;1.70;;
18316;SDS011;9284;52.298;21.164;2023-07-20T14:08:55;3.00;;;1.65;;
18316;SDS011;9284;52.298;21.164;2023-07-20T14:11:24;1.88;;;1.67;;
18316;SDS011;9284;52.298;21.164;2023-07-20T14:13:55;2.65;;;1.70;;
18316;SDS011;9284;52.298;21.164;2023-07-20T14:16:25;2.97;;;1.52;;
18316;SDS011;9284;52.298;21.164;2023-07-20T14:18:54;2.33;;;1.75;;
18316;SDS011;9284;52.298;21.164;2023-07-20T14:21:23;2.72;;;1.60;;
18316;SDS011;9284;52.298;21.164;2023-07-20T14:23:52;2.08;;;1.60;;
18316;SDS011;9284;52.298;21.164;2023-07-20T14:26:20;1.67;;;1.58;;
18316;SDS011;9284;52.298;21.164;2023-07-20T14:28:49;2.80;;;1.60;;
18316;SDS011;9284;52.298;21.164;2023-07-20T14:31:17;2.33;;;1.70;;
18316;SDS011;9284;52.298;21.164;2023-07-20T14:33:46;2.03;;;1.80;;
18316;SDS011;9284;52.298;21.164;2023-07-20T14:36:15;2.90;;;1.92;;
18316;SDS011;9284;52.298;21.164;2023-07-20T14:38:46;2.20;;;2.00;;
18316;SDS011;9284;52.298;21.164;2023-07-20T14:41:14;2.67;;;2.13;;
18316;SDS011;9284;52.298;21.164;2023-07-20T14:43:44;6.38;;;2.35;;
18316;SDS011;9284;52.298;21.164;2023-07-20T14:46:12;3.95;;;2.20;;
18316;SDS011;9284;52.298;21.164;2023-07-20T14:48:40;3.10;;;2.10;;
18316;SDS011;9284;52.298;21.164;2023-07-20T14:51:09;3.83;;;2.10;;
18316;SDS011;9284;52.298;21.164;2023-07-20T14:53:37;5.22;;;2.10;;
18316;SDS011;9284;52.298;21.164;2023-07-20T14:56:07;3.60;;;2.25;;
18316;SDS011;9284;52.298;21.164;2023-07-20T14:58:35;4.22;;;2.60;;
18316;SDS011;9284;52.298;21.164;2023-07-20T15:01:04;5.18;;;2.30;;
18316;SDS011;9284;52.298;21.164;2023-07-20T15:03:32;6.30;;;2.47;;
18316;SDS011;9284;52.298;21.164;2023-07-20T15:06:01;3.03;;;2.40;;
18316;SDS011;9284;52.298;21.164;2023-07-20T15:08:30;3.55;;;2.45;;
18316;SDS011;9284;52.298;21.164;2023-07-20T15:10:58;5.75;;;2.40;;
18316;SDS011;9284;52.298;21.164;2023-07-20T15:13:28;2.72;;;2.47;;